Terminal Aerodrome Forecast
Issued by NWS

Home | Current Version | Previous Version | Text Only | Print | Product List | Glossary On
Versions: 1 2 3 4 5 6 7 8 9 10 11 12 13 14 15 16 17
000
FTUS43 KJKL 190542
TAFSME
TAF
KSME 190542Z 1906/2006 00000KT P6SM BKN250
     FM191400 00000KT P6SM BKN090
     FM191800 12005KT P6SM VCSH OVC060
     FM192100 13006KT 3SM SHRA VCTS OVC030CB=

USA.gov is the U.S. government's official web portal to all federal, state and local government web resources and services.